createdAt,value
2022-12-02T00:00:02.800Z,101107.20
2022-12-02T00:02:40.416Z,101101.60
2022-12-02T00:05:31.281Z,101103.80
2022-12-02T00:08:15.765Z,101105.00
2022-12-02T00:10:49.955Z,101102.20
2022-12-02T00:13:29.189Z,101091.00
2022-12-02T00:16:04.430Z,101097.40
2022-12-02T00:18:37.125Z,101105.20
2022-12-02T00:21:09.877Z,101106.40
2022-12-02T00:23:42.556Z,101096.80
2022-12-02T00:26:15.252Z,101093.00
2022-12-02T00:28:48.137Z,101096.20
2022-12-02T00:31:23.369Z,101089.60
2022-12-02T00:33:56.676Z,101086.60
2022-12-02T00:36:29.510Z,101086.80
2022-12-02T00:39:02.446Z,101081.40
2022-12-02T00:41:35.226Z,101084.60
2022-12-02T00:44:25.827Z,101079.40
2022-12-02T00:46:58.358Z,101087.20
2022-12-02T00:49:31.085Z,101085.80
2022-12-02T00:52:03.591Z,101082.00
2022-12-02T00:54:36.664Z,101079.80
2022-12-02T00:57:09.221Z,101078.00
2022-12-02T00:59:41.892Z,101076.60
2022-12-02T01:02:14.948Z,101076.80
2022-12-02T01:04:48.099Z,101075.60
2022-12-02T01:07:20.773Z,101073.20
2022-12-02T01:09:53.449Z,101072.80
2022-12-02T01:12:27.211Z,101078.80
2022-12-02T01:14:59.727Z,101072.20
2022-12-02T01:17:32.922Z,101078.60
2022-12-02T01:20:06.258Z,101075.20
2022-12-02T01:22:39.206Z,101078.00
2022-12-02T01:25:12.535Z,101089.00
2022-12-02T01:27:45.879Z,101088.00
2022-12-02T01:30:19.933Z,101084.60
2022-12-02T01:32:52.594Z,101085.40
2022-12-02T01:35:25.581Z,101088.60
2022-12-02T01:37:58.463Z,101093.20
2022-12-02T01:40:33.190Z,101099.80
2022-12-02T01:43:06.394Z,101103.00
2022-12-02T01:45:39.766Z,101108.40
2022-12-02T01:48:13.500Z,101098.80
2022-12-02T01:50:47.548Z,101099.20
2022-12-02T01:53:20.886Z,101107.40
2022-12-02T01:55:53.886Z,101105.00
2022-12-02T01:58:31.741Z,101107.00
2022-12-02T02:01:05.046Z,101104.40
2022-12-02T02:03:38.141Z,101107.00
2022-12-02T02:06:11.890Z,101103.20
2022-12-02T02:08:45.280Z,101103.00
2022-12-02T02:11:18.643Z,101106.80
2022-12-02T02:13:51.902Z,101110.80
2022-12-02T02:16:25.428Z,101107.00
2022-12-02T02:18:58.037Z,101103.80
2022-12-02T02:21:38.094Z,101106.60
2022-12-02T02:24:11.826Z,101106.20
2022-12-02T02:26:45.295Z,101100.20
2022-12-02T02:29:18.186Z,101100.60
2022-12-02T02:31:51.645Z,101089.00
2022-12-02T02:34:25.084Z,101093.60
2022-12-02T02:36:59.707Z,101092.60
2022-12-02T02:39:33.435Z,101089.40
2022-12-02T02:42:06.804Z,101091.80
2022-12-02T02:44:40.410Z,101086.20
2022-12-02T02:47:14.120Z,101086.20
2022-12-02T02:49:46.999Z,101085.40
2022-12-02T02:52:19.781Z,101084.00
2022-12-02T02:54:53.521Z,101078.20
2022-12-02T02:57:26.780Z,101080.00
2022-12-02T03:00:01.399Z,101076.20
2022-12-02T03:02:34.612Z,101074.20
2022-12-02T03:05:10.514Z,101071.00
2022-12-02T03:07:43.879Z,101074.40
2022-12-02T03:10:18.268Z,101071.00
2022-12-02T03:12:53.653Z,101074.40
2022-12-02T03:15:28.790Z,101066.00
2022-12-02T03:18:01.910Z,101068.80
2022-12-02T03:20:34.731Z,101074.80
2022-12-02T03:23:07.519Z,101069.00
2022-12-02T03:25:40.671Z,101070.40
2022-12-02T03:28:13.789Z,101068.60
2022-12-02T03:30:47.319Z,101070.20
2022-12-02T03:33:20.381Z,101069.60
2022-12-02T03:35:53.307Z,101066.80
2022-12-02T03:38:26.376Z,101069.00
2022-12-02T03:40:59.539Z,101071.40
2022-12-02T03:43:32.433Z,101076.40
2022-12-02T03:46:08.028Z,101080.40
2022-12-02T03:48:42.809Z,101078.20
2022-12-02T03:51:18.081Z,101077.00
2022-12-02T03:53:51.036Z,101075.40
2022-12-02T03:56:23.737Z,101082.00
2022-12-02T03:58:57.079Z,101088.20
2022-12-02T04:01:29.905Z,101093.20
2022-12-02T04:04:02.550Z,101089.60
2022-12-02T04:06:35.053Z,101092.80
2022-12-02T04:09:07.547Z,101087.80
2022-12-02T04:11:40.209Z,101087.80
2022-12-02T04:14:12.888Z,101085.80
2022-12-02T04:16:45.339Z,101086.00
2022-12-02T04:19:18.147Z,101082.20
2022-12-02T04:21:50.935Z,101078.40
2022-12-02T04:24:23.671Z,101077.20
2022-12-02T04:26:56.147Z,101077.60
2022-12-02T04:29:28.632Z,101076.20
2022-12-02T04:32:01.297Z,101073.40
2022-12-02T04:34:34.030Z,101072.60
2022-12-02T04:37:06.769Z,101066.20
2022-12-02T04:39:39.466Z,101069.80
2022-12-02T04:42:12.818Z,101066.20
2022-12-02T04:44:45.293Z,101066.60
2022-12-02T04:47:17.936Z,101068.40
2022-12-02T04:49:50.401Z,101064.80
2022-12-02T04:52:22.988Z,101065.60
2022-12-02T04:54:55.770Z,101057.00
2022-12-02T04:57:31.788Z,101068.80
2022-12-02T05:00:04.970Z,101064.20
2022-12-02T05:02:37.645Z,101069.00
2022-12-02T05:05:12.375Z,101064.60
2022-12-02T05:07:45.347Z,101062.40
2022-12-02T05:10:18.493Z,101065.00
2022-12-02T05:12:51.188Z,101063.40
2022-12-02T05:15:23.972Z,101053.60
2022-12-02T05:17:56.755Z,101055.80
2022-12-02T05:20:29.538Z,101052.40
2022-12-02T05:23:02.119Z,101048.40
2022-12-02T05:25:34.692Z,101053.60
2022-12-02T05:28:07.481Z,101058.00
2022-12-02T05:30:40.153Z,101059.00
2022-12-02T05:33:12.629Z,101053.80
2022-12-02T05:35:45.222Z,101056.80
2022-12-02T05:38:17.663Z,101054.60
2022-12-02T05:40:50.260Z,101063.40
2022-12-02T05:43:26.077Z,101060.20
2022-12-02T05:46:02.080Z,101062.40
2022-12-02T05:48:37.857Z,101064.80
2022-12-02T05:51:16.086Z,101060.40
2022-12-02T05:53:51.256Z,101065.20
2022-12-02T05:56:29.726Z,101063.00
2022-12-02T05:59:09.231Z,101067.80
2022-12-02T06:01:43.920Z,101073.00
2022-12-02T06:04:23.806Z,101073.00
2022-12-02T06:07:00.904Z,101067.40
2022-12-02T06:09:36.088Z,101068.80
2022-12-02T06:12:18.641Z,101066.60
2022-12-02T06:14:55.566Z,101067.80
2022-12-02T06:17:28.077Z,101072.20
2022-12-02T06:20:00.985Z,101075.60
2022-12-02T06:22:36.120Z,101077.40
2022-12-02T06:25:28.707Z,101080.60
2022-12-02T06:28:20.974Z,101083.00
2022-12-02T06:30:58.939Z,101083.80
2022-12-02T06:33:37.232Z,101082.80
2022-12-02T06:36:18.914Z,101082.00
2022-12-02T06:38:56.514Z,101084.80
2022-12-02T06:41:32.997Z,101087.20
2022-12-02T06:44:34.024Z,101092.80
2022-12-02T06:48:07.300Z,101094.00
2022-12-02T06:50:44.278Z,101095.60
2022-12-02T06:53:40.027Z,101101.80
2022-12-02T06:56:25.163Z,101101.20
2022-12-02T06:59:03.692Z,101101.60
2022-12-02T07:01:41.845Z,101105.80
2022-12-02T07:04:45.655Z,101104.00
2022-12-02T07:07:28.446Z,101106.80
2022-12-02T07:10:06.404Z,101105.20
2022-12-02T07:12:45.487Z,101106.20
2022-12-02T07:15:30.782Z,101104.60
2022-12-02T07:18:13.343Z,101106.00
2022-12-02T07:20:48.149Z,101117.20
2022-12-02T07:23:25.264Z,101114.60
2022-12-02T07:26:01.729Z,101116.60
2022-12-02T07:28:40.076Z,101120.20
2022-12-02T07:31:25.394Z,101118.80
2022-12-02T07:33:58.536Z,101119.80
2022-12-02T07:36:31.013Z,101118.00
2022-12-02T07:39:06.333Z,101114.80
2022-12-02T07:41:41.185Z,101116.60
2022-12-02T07:44:13.736Z,101112.80
2022-12-02T07:46:46.341Z,101113.20
2022-12-02T07:49:19.020Z,101115.60
2022-12-02T07:51:51.933Z,101110.60
2022-12-02T07:54:24.750Z,101109.80
2022-12-02T07:56:57.235Z,101111.80
2022-12-02T07:59:30.374Z,101108.80
2022-12-02T08:02:03.054Z,101110.00
2022-12-02T08:04:35.986Z,101112.60
2022-12-02T08:07:08.911Z,101116.00
2022-12-02T08:09:41.342Z,101113.20
2022-12-02T08:12:14.472Z,101112.00
2022-12-02T08:14:47.103Z,101114.00
2022-12-02T08:17:20.038Z,101113.00
2022-12-02T08:19:52.550Z,101114.60
2022-12-02T08:22:25.040Z,101114.40
2022-12-02T08:24:57.644Z,101109.40
2022-12-02T08:27:30.165Z,101114.40
2022-12-02T08:30:02.768Z,101115.60
2022-12-02T08:32:35.301Z,101117.00
2022-12-02T08:35:09.369Z,101118.00
2022-12-02T08:37:41.982Z,101124.80
2022-12-02T08:40:15.884Z,101122.00
2022-12-02T08:42:48.427Z,101123.80
2022-12-02T08:45:21.114Z,101125.80
2022-12-02T08:47:54.011Z,101126.60
2022-12-02T08:50:27.415Z,101132.20
2022-12-02T08:52:59.993Z,101132.80
2022-12-02T08:55:33.169Z,101132.60
2022-12-02T08:58:05.781Z,101128.40
2022-12-02T09:00:39.669Z,101125.00
2022-12-02T09:03:13.534Z,101127.60
2022-12-02T09:05:46.491Z,101129.40
2022-12-02T09:08:19.068Z,101123.20
2022-12-02T09:10:51.908Z,101123.60
2022-12-02T09:13:24.838Z,101124.80
2022-12-02T09:15:57.718Z,101130.00
2022-12-02T09:18:30.508Z,101127.00
2022-12-02T09:21:03.185Z,101126.20
2022-12-02T09:23:35.866Z,101128.00
2022-12-02T09:26:08.853Z,101130.60
2022-12-02T09:28:41.636Z,101128.60
2022-12-02T09:31:14.478Z,101130.60
2022-12-02T09:33:47.007Z,101127.60
2022-12-02T09:36:19.785Z,101130.40
2022-12-02T09:38:52.944Z,101133.80
2022-12-02T09:41:25.754Z,101134.80
2022-12-02T09:43:58.656Z,101133.00
2022-12-02T09:46:32.040Z,101131.80
2022-12-02T09:49:05.508Z,101129.60
2022-12-02T09:51:38.557Z,101130.20
2022-12-02T09:54:13.692Z,101128.20
2022-12-02T09:56:46.913Z,101128.80
2022-12-02T09:59:20.863Z,101125.00
2022-12-02T10:01:54.076Z,101125.80
2022-12-02T10:04:27.350Z,101126.60
2022-12-02T10:07:00.644Z,101125.20
2022-12-02T10:09:34.451Z,101123.00
2022-12-02T10:12:09.541Z,101123.40
2022-12-02T10:14:43.389Z,101119.80
2022-12-02T10:17:20.663Z,101118.20
2022-12-02T10:19:55.379Z,101113.20
2022-12-02T10:22:27.990Z,101111.40
2022-12-02T10:25:01.896Z,101113.00
2022-12-02T10:27:37.442Z,101115.00
2022-12-02T10:30:27.311Z,101109.80
2022-12-02T10:33:05.605Z,101105.00
2022-12-02T10:35:49.657Z,101107.20
2022-12-02T10:38:41.820Z,101105.20
2022-12-02T10:41:23.221Z,101107.80
2022-12-02T10:44:16.687Z,101102.60
2022-12-02T10:46:50.713Z,101097.40
2022-12-02T10:49:34.847Z,101099.00
2022-12-02T10:52:14.019Z,101097.40
2022-12-02T10:54:52.418Z,101095.60
2022-12-02T10:57:31.639Z,101095.00
2022-12-02T11:00:18.573Z,101093.00
2022-12-02T11:02:56.434Z,101093.40
2022-12-02T11:05:31.930Z,101096.20
2022-12-02T11:08:08.267Z,101093.40
2022-12-02T11:10:44.963Z,101092.40
2022-12-02T11:13:57.151Z,101089.00
2022-12-02T11:17:12.348Z,101090.60
2022-12-02T11:19:50.176Z,101088.20
2022-12-02T11:23:09.019Z,101084.20
2022-12-02T11:26:12.763Z,101088.20
2022-12-02T11:29:18.735Z,101082.80
2022-12-02T11:32:19.565Z,101084.00
2022-12-02T11:35:17.648Z,101085.80
2022-12-02T11:37:49.909Z,101089.00
2022-12-02T11:41:02.687Z,101082.00
2022-12-02T11:44:10.655Z,101078.00
2022-12-02T11:46:50.276Z,101073.20
2022-12-02T11:49:36.288Z,101074.20
2022-12-02T11:52:22.659Z,101069.20
2022-12-02T11:55:19.944Z,101065.20
2022-12-02T11:57:55.407Z,101058.20
2022-12-02T12:00:38.301Z,101057.40
2022-12-02T12:03:16.324Z,101054.60
2022-12-02T12:06:11.870Z,101051.00
2022-12-02T12:08:48.382Z,101051.40
2022-12-02T12:11:25.787Z,101053.00
2022-12-02T12:14:23.599Z,101052.80
2022-12-02T12:17:30.551Z,101049.60
2022-12-02T12:20:03.508Z,101052.00
2022-12-02T12:22:36.216Z,101051.00
2022-12-02T12:25:45.001Z,101051.40
2022-12-02T12:28:30.579Z,101051.40
2022-12-02T12:31:05.262Z,101046.40
2022-12-02T12:33:37.929Z,101049.20
2022-12-02T12:36:11.246Z,101051.60
2022-12-02T12:38:44.210Z,101052.60
2022-12-02T12:41:25.827Z,101050.60
2022-12-02T12:44:10.120Z,101045.00
2022-12-02T12:46:42.734Z,101045.60
2022-12-02T12:49:15.464Z,101043.20
2022-12-02T12:51:48.384Z,101038.20
2022-12-02T12:54:20.877Z,101029.40
2022-12-02T12:56:53.795Z,101029.60
2022-12-02T12:59:26.338Z,101028.00
2022-12-02T13:01:59.041Z,101029.60
2022-12-02T13:04:31.633Z,101031.20
2022-12-02T13:07:04.175Z,101032.80
2022-12-02T13:09:36.852Z,101031.60
2022-12-02T13:12:13.141Z,101028.80
2022-12-02T13:14:46.206Z,101029.60
2022-12-02T13:17:19.015Z,101027.20
2022-12-02T13:19:51.691Z,101034.00
2022-12-02T13:22:24.348Z,101026.40
2022-12-02T13:24:57.650Z,101028.00
2022-12-02T13:27:30.438Z,101029.20
2022-12-02T13:30:02.861Z,101032.00
2022-12-02T13:32:35.582Z,101039.00
2022-12-02T13:35:10.095Z,101030.60
2022-12-02T13:37:42.887Z,101032.80
2022-12-02T13:40:20.097Z,101028.80
2022-12-02T13:42:52.692Z,101031.00
2022-12-02T13:45:28.109Z,101031.80
2022-12-02T13:48:02.077Z,101032.20
2022-12-02T13:50:34.626Z,101037.20
2022-12-02T13:53:07.346Z,101036.20
2022-12-02T13:55:40.050Z,101037.20
2022-12-02T13:58:12.725Z,101040.20
2022-12-02T14:00:45.384Z,101036.40
2022-12-02T14:03:18.154Z,101038.20
2022-12-02T14:05:50.870Z,101040.00
2022-12-02T14:08:23.620Z,101036.40
2022-12-02T14:10:56.331Z,101036.20
2022-12-02T14:13:29.461Z,101040.80
2022-12-02T14:16:02.016Z,101039.80
2022-12-02T14:18:34.678Z,101039.60
2022-12-02T14:21:07.878Z,101037.00
2022-12-02T14:23:40.371Z,101039.60
2022-12-02T14:26:13.237Z,101039.80
2022-12-02T14:28:45.904Z,101040.20
2022-12-02T14:31:25.417Z,101042.40
2022-12-02T14:34:14.618Z,101044.60
2022-12-02T14:36:47.710Z,101035.00
2022-12-02T14:39:20.579Z,101034.60
2022-12-02T14:41:53.216Z,101028.00
2022-12-02T14:44:26.301Z,101035.20
2022-12-02T14:46:59.066Z,101039.60
2022-12-02T14:49:40.944Z,101041.00
2022-12-02T14:52:14.235Z,101041.00
2022-12-02T14:54:47.018Z,101038.40
2022-12-02T14:57:19.799Z,101042.80
2022-12-02T14:59:52.889Z,101041.80
2022-12-02T15:02:25.495Z,101048.20
2022-12-02T15:04:58.208Z,101047.20
2022-12-02T15:07:30.972Z,101047.60
2022-12-02T15:10:03.926Z,101046.00
2022-12-02T15:12:36.712Z,101042.20
2022-12-02T15:18:05.028Z,101039.80
2022-12-02T15:20:37.780Z,101045.40
2022-12-02T15:23:10.534Z,101043.00
2022-12-02T15:25:43.246Z,101048.60
2022-12-02T15:28:15.951Z,101048.00
2022-12-02T15:30:48.616Z,101049.40
2022-12-02T15:33:21.193Z,101054.80
2022-12-02T15:35:53.820Z,101055.20
2022-12-02T15:38:26.602Z,101054.60
2022-12-02T15:41:01.115Z,101054.20
2022-12-02T15:43:34.052Z,101053.60
2022-12-02T15:46:07.352Z,101051.20
2022-12-02T15:48:40.029Z,101055.40
2022-12-02T15:51:13.430Z,101056.60
2022-12-02T15:53:46.372Z,101059.40
2022-12-02T15:56:19.384Z,101062.40
2022-12-02T15:58:51.979Z,101064.60
2022-12-02T16:01:24.627Z,101064.00
2022-12-02T16:03:57.343Z,101065.40
2022-12-02T16:06:30.017Z,101067.40
2022-12-02T16:09:02.795Z,101068.00
2022-12-02T16:11:35.496Z,101063.00
2022-12-02T16:14:08.639Z,101061.80
2022-12-02T16:16:41.377Z,101062.20
2022-12-02T16:19:13.905Z,101064.00
2022-12-02T16:21:46.409Z,101070.20
2022-12-02T16:24:19.188Z,101070.40
2022-12-02T16:26:55.409Z,101072.60
2022-12-02T16:29:28.572Z,101072.60
2022-12-02T16:32:01.265Z,101080.40
2022-12-02T16:34:34.213Z,101078.20
2022-12-02T16:37:06.960Z,101082.00
2022-12-02T16:39:39.537Z,101086.60
2022-12-02T16:42:12.101Z,101090.40
2022-12-02T16:44:44.932Z,101084.80
2022-12-02T16:47:17.589Z,101091.80
2022-12-02T16:49:52.177Z,101089.40
2022-12-02T16:52:25.328Z,101088.60
2022-12-02T16:54:58.009Z,101087.80
2022-12-02T16:57:30.715Z,101093.40
2022-12-02T17:00:03.526Z,101092.40
2022-12-02T17:02:36.591Z,101096.40
2022-12-02T17:05:10.993Z,101105.20
2022-12-02T17:07:43.559Z,101099.40
2022-12-02T17:10:17.549Z,101098.60
2022-12-02T17:12:50.110Z,101096.20
2022-12-02T17:15:22.727Z,101099.40
2022-12-02T17:17:55.432Z,101101.20
2022-12-02T17:20:28.000Z,101099.40
2022-12-02T17:23:00.797Z,101100.00
2022-12-02T17:25:33.331Z,101104.80
2022-12-02T17:28:06.433Z,101105.00
2022-12-02T17:30:39.217Z,101102.00
2022-12-02T17:33:12.070Z,101103.80
2022-12-02T17:35:44.681Z,101106.60
2022-12-02T17:38:17.258Z,101107.60
2022-12-02T17:41:10.304Z,101107.40
2022-12-02T17:43:44.024Z,101115.80
2022-12-02T17:46:17.348Z,101115.40
2022-12-02T17:48:50.492Z,101116.40
2022-12-02T17:51:23.014Z,101120.60
2022-12-02T17:53:55.564Z,101125.00
2022-12-02T17:56:28.753Z,101127.40
2022-12-02T17:59:01.539Z,101121.80
2022-12-02T18:01:34.385Z,101122.80
2022-12-02T18:04:07.882Z,101124.40
2022-12-02T18:06:40.429Z,101121.60
2022-12-02T18:09:13.280Z,101128.60
2022-12-02T18:11:46.063Z,101123.80
2022-12-02T18:14:18.743Z,101127.80
2022-12-02T18:16:52.075Z,101124.60
2022-12-02T18:19:24.822Z,101132.20
2022-12-02T18:21:57.831Z,101131.20
2022-12-02T18:24:30.317Z,101131.60
2022-12-02T18:27:02.974Z,101134.20
2022-12-02T18:29:35.541Z,101125.80
2022-12-02T18:32:08.227Z,101124.80
2022-12-02T18:34:40.901Z,101130.20
2022-12-02T18:37:13.589Z,101128.80
2022-12-02T18:39:46.307Z,101130.60
2022-12-02T18:42:19.149Z,101128.40
2022-12-02T18:44:52.201Z,101129.60
2022-12-02T18:47:25.211Z,101129.80
2022-12-02T18:49:57.908Z,101127.60
2022-12-02T18:52:30.670Z,101124.80
2022-12-02T18:55:03.737Z,101127.60
2022-12-02T18:57:36.977Z,101124.40
2022-12-02T19:00:14.788Z,101123.20
2022-12-02T19:02:47.899Z,101119.60
2022-12-02T19:05:20.584Z,101119.00
2022-12-02T19:07:53.457Z,101121.80
2022-12-02T19:10:26.412Z,101125.00
2022-12-02T19:12:58.999Z,101123.60
2022-12-02T19:15:37.966Z,101128.80
2022-12-02T19:18:11.825Z,101124.40
2022-12-02T19:20:44.310Z,101129.20
2022-12-02T19:23:16.979Z,101130.80
2022-12-02T19:25:50.709Z,101134.20
2022-12-02T19:28:24.081Z,101132.20
2022-12-02T19:30:57.499Z,101130.60
2022-12-02T19:33:30.056Z,101127.40
2022-12-02T19:36:02.838Z,101125.60
2022-12-02T19:38:35.416Z,101129.00
2022-12-02T19:41:08.570Z,101127.80
2022-12-02T19:43:41.115Z,101131.00
2022-12-02T19:46:14.314Z,101123.60
2022-12-02T19:48:47.038Z,101122.00
2022-12-02T19:51:19.522Z,101123.40
2022-12-02T19:53:52.185Z,101123.20
2022-12-02T19:56:24.689Z,101128.80
2022-12-02T19:58:57.456Z,101134.20
2022-12-02T20:01:34.302Z,101131.00
2022-12-02T20:04:33.458Z,101126.80
2022-12-02T20:07:03.367Z,101131.00
2022-12-02T20:09:36.045Z,101126.80
2022-12-02T20:12:09.416Z,101123.00
2022-12-02T20:14:42.022Z,101121.80
2022-12-02T20:17:15.007Z,101121.80
2022-12-02T20:19:47.709Z,101119.80
2022-12-02T20:22:20.298Z,101123.60
2022-12-02T20:24:53.070Z,101114.80
2022-12-02T20:27:26.145Z,101121.20
2022-12-02T20:29:59.021Z,101125.00
2022-12-02T20:32:31.845Z,101128.80
2022-12-02T20:35:04.714Z,101127.40
2022-12-02T20:37:38.910Z,101124.00
2022-12-02T20:40:16.170Z,101124.60
2022-12-02T20:42:49.445Z,101126.80
2022-12-02T20:45:23.295Z,101126.00
2022-12-02T20:47:57.171Z,101120.60
2022-12-02T20:50:30.173Z,101123.20
2022-12-02T20:53:02.946Z,101127.40
2022-12-02T20:55:35.326Z,101128.20
2022-12-02T20:58:08.914Z,101126.20
2022-12-02T21:00:41.997Z,101124.20
2022-12-02T21:03:14.618Z,101128.60
2022-12-02T21:05:47.301Z,101132.80
2022-12-02T21:08:19.976Z,101132.40
2022-12-02T21:10:52.659Z,101137.60
2022-12-02T21:13:25.289Z,101141.60
2022-12-02T21:15:58.282Z,101146.20
2022-12-02T21:18:36.410Z,101144.60
2022-12-02T21:21:10.932Z,101144.60
2022-12-02T21:23:43.451Z,101140.00
2022-12-02T21:26:16.009Z,101131.60
2022-12-02T21:28:48.826Z,101132.00
2022-12-02T21:31:21.444Z,101134.80
2022-12-02T21:33:54.253Z,101133.00
2022-12-02T21:36:27.240Z,101129.80
2022-12-02T21:39:00.231Z,101124.60
2022-12-02T21:41:32.906Z,101118.60
2022-12-02T21:44:05.691Z,101125.40
2022-12-02T21:46:38.415Z,101131.60
2022-12-02T21:49:11.153Z,101135.40
2022-12-02T21:51:43.833Z,101136.00
2022-12-02T21:54:16.412Z,101135.60
2022-12-02T21:56:48.898Z,101127.40
2022-12-02T21:59:21.733Z,101126.80
2022-12-02T22:01:54.570Z,101121.60
2022-12-02T22:04:31.066Z,101125.40
2022-12-02T22:07:22.031Z,101134.20
2022-12-02T22:09:54.716Z,101140.40
2022-12-02T22:12:27.391Z,101139.40
2022-12-02T22:15:00.027Z,101137.40
2022-12-02T22:17:32.656Z,101140.20
2022-12-02T22:20:06.978Z,101143.20
2022-12-02T22:22:39.883Z,101143.40
2022-12-02T22:25:13.633Z,101146.00
2022-12-02T22:27:46.339Z,101138.40
2022-12-02T22:30:19.510Z,101129.80
2022-12-02T22:32:52.110Z,101132.80
2022-12-02T22:35:24.858Z,101130.20
2022-12-02T22:37:57.383Z,101129.60
2022-12-02T22:40:30.252Z,101132.40
2022-12-02T22:43:02.932Z,101130.80
2022-12-02T22:45:35.820Z,101135.00
2022-12-02T22:48:09.170Z,101132.60
2022-12-02T22:50:41.691Z,101131.00
2022-12-02T22:53:14.164Z,101130.40
2022-12-02T22:55:46.667Z,101136.20
2022-12-02T22:58:19.523Z,101131.20
2022-12-02T23:00:52.353Z,101130.60
2022-12-02T23:03:25.192Z,101133.60
2022-12-02T23:05:58.078Z,101129.80
2022-12-02T23:08:31.034Z,101125.00
2022-12-02T23:11:03.514Z,101124.60
2022-12-02T23:13:35.996Z,101129.60
2022-12-02T23:16:09.437Z,101127.80
2022-12-02T23:18:42.195Z,101128.40
2022-12-02T23:21:14.669Z,101128.40
2022-12-02T23:23:47.145Z,101128.00
2022-12-02T23:26:19.801Z,101124.20
2022-12-02T23:28:52.302Z,101122.40
2022-12-02T23:31:24.855Z,101123.00
2022-12-02T23:33:57.560Z,101116.20
2022-12-02T23:36:34.875Z,101116.40
2022-12-02T23:39:08.108Z,101118.20
2022-12-02T23:41:40.487Z,101115.00
2022-12-02T23:44:13.092Z,101113.20
2022-12-02T23:46:45.671Z,101113.00
2022-12-02T23:49:18.248Z,101114.40
2022-12-02T23:51:50.860Z,101110.40
2022-12-02T23:54:23.636Z,101109.60
2022-12-02T23:56:56.463Z,101108.80
2022-12-02T23:59:29.174Z,101109.80
